sensor_id;sensor_type;location;lat;lon;timestamp;P1;durP1;ratioP1;P2;durP2;ratioP2
7211;SDS011;3647;48.792;9.802;2023-03-04T00:02:14;49.23;;;29.80;;
7211;SDS011;3647;48.792;9.802;2023-03-04T00:04:41;50.70;;;29.73;;
7211;SDS011;3647;48.792;9.802;2023-03-04T00:07:09;53.97;;;30.10;;
7211;SDS011;3647;48.792;9.802;2023-03-04T00:09:36;52.73;;;29.27;;
7211;SDS011;3647;48.792;9.802;2023-03-04T00:12:03;53.37;;;29.40;;
7211;SDS011;3647;48.792;9.802;2023-03-04T00:14:32;46.97;;;26.50;;
7211;SDS011;3647;48.792;9.802;2023-03-04T00:16:59;59.70;;;29.53;;
7211;SDS011;3647;48.792;9.802;2023-03-04T00:19:28;59.00;;;28.43;;
7211;SDS011;3647;48.792;9.802;2023-03-04T00:21:55;47.93;;;29.87;;
7211;SDS011;3647;48.792;9.802;2023-03-04T00:24:23;53.43;;;27.83;;
7211;SDS011;3647;48.792;9.802;2023-03-04T00:26:50;52.90;;;28.23;;
7211;SDS011;3647;48.792;9.802;2023-03-04T00:29:16;47.87;;;27.57;;
7211;SDS011;3647;48.792;9.802;2023-03-04T00:31:43;53.60;;;28.10;;
7211;SDS011;3647;48.792;9.802;2023-03-04T00:34:11;54.37;;;29.37;;
7211;SDS011;3647;48.792;9.802;2023-03-04T00:36:38;54.83;;;29.00;;
7211;SDS011;3647;48.792;9.802;2023-03-04T00:39:08;47.57;;;28.77;;
7211;SDS011;3647;48.792;9.802;2023-03-04T00:41:36;58.37;;;29.40;;
7211;SDS011;3647;48.792;9.802;2023-03-04T00:44:03;53.13;;;29.00;;
7211;SDS011;3647;48.792;9.802;2023-03-04T00:46:30;49.37;;;29.27;;
7211;SDS011;3647;48.792;9.802;2023-03-04T00:48:57;52.97;;;28.93;;
7211;SDS011;3647;48.792;9.802;2023-03-04T00:51:24;49.03;;;28.47;;
7211;SDS011;3647;48.792;9.802;2023-03-04T00:53:51;50.90;;;29.43;;
7211;SDS011;3647;48.792;9.802;2023-03-04T00:56:18;50.50;;;28.70;;
7211;SDS011;3647;48.792;9.802;2023-03-04T00:58:46;52.40;;;27.53;;
7211;SDS011;3647;48.792;9.802;2023-03-04T01:01:13;54.33;;;29.70;;
7211;SDS011;3647;48.792;9.802;2023-03-04T01:03:39;52.77;;;29.70;;
7211;SDS011;3647;48.792;9.802;2023-03-04T01:06:06;53.73;;;27.53;;
7211;SDS011;3647;48.792;9.802;2023-03-04T01:08:33;53.60;;;29.20;;
7211;SDS011;3647;48.792;9.802;2023-03-04T01:11:00;61.17;;;29.27;;
7211;SDS011;3647;48.792;9.802;2023-03-04T01:13:27;51.47;;;28.47;;
7211;SDS011;3647;48.792;9.802;2023-03-04T01:15:55;64.17;;;33.13;;
7211;SDS011;3647;48.792;9.802;2023-03-04T01:18:22;117.03;;;44.33;;
7211;SDS011;3647;48.792;9.802;2023-03-04T01:20:49;96.83;;;42.60;;
7211;SDS011;3647;48.792;9.802;2023-03-04T01:23:16;93.17;;;39.87;;
7211;SDS011;3647;48.792;9.802;2023-03-04T01:25:42;85.07;;;38.53;;
7211;SDS011;3647;48.792;9.802;2023-03-04T01:28:09;85.90;;;35.77;;
7211;SDS011;3647;48.792;9.802;2023-03-04T01:30:36;85.77;;;38.10;;
7211;SDS011;3647;48.792;9.802;2023-03-04T01:33:04;90.13;;;38.10;;
7211;SDS011;3647;48.792;9.802;2023-03-04T01:35:31;64.57;;;32.27;;
7211;SDS011;3647;48.792;9.802;2023-03-04T01:37:58;56.33;;;30.80;;
7211;SDS011;3647;48.792;9.802;2023-03-04T01:40:24;58.40;;;30.43;;
7211;SDS011;3647;48.792;9.802;2023-03-04T01:42:51;56.07;;;29.60;;
7211;SDS011;3647;48.792;9.802;2023-03-04T01:45:18;53.60;;;27.90;;
7211;SDS011;3647;48.792;9.802;2023-03-04T01:47:45;50.83;;;28.00;;
7211;SDS011;3647;48.792;9.802;2023-03-04T01:50:18;48.23;;;27.43;;
7211;SDS011;3647;48.792;9.802;2023-03-04T01:52:47;50.27;;;29.33;;
7211;SDS011;3647;48.792;9.802;2023-03-04T01:55:14;43.90;;;25.00;;
7211;SDS011;3647;48.792;9.802;2023-03-04T01:57:42;50.60;;;27.30;;
7211;SDS011;3647;48.792;9.802;2023-03-04T02:00:18;46.83;;;26.30;;
7211;SDS011;3647;48.792;9.802;2023-03-04T02:02:48;43.50;;;25.87;;
7211;SDS011;3647;48.792;9.802;2023-03-04T02:05:19;59.23;;;26.83;;
7211;SDS011;3647;48.792;9.802;2023-03-04T02:07:46;54.40;;;27.83;;
7211;SDS011;3647;48.792;9.802;2023-03-04T02:10:13;44.60;;;26.17;;
7211;SDS011;3647;48.792;9.802;2023-03-04T02:12:41;49.13;;;28.00;;
7211;SDS011;3647;48.792;9.802;2023-03-04T02:15:09;52.13;;;27.53;;
7211;SDS011;3647;48.792;9.802;2023-03-04T02:17:36;50.40;;;29.10;;
7211;SDS011;3647;48.792;9.802;2023-03-04T02:20:06;50.03;;;26.00;;
7211;SDS011;3647;48.792;9.802;2023-03-04T02:22:44;52.10;;;27.50;;
7211;SDS011;3647;48.792;9.802;2023-03-04T02:25:17;46.20;;;26.63;;
7211;SDS011;3647;48.792;9.802;2023-03-04T02:27:51;54.77;;;28.47;;
7211;SDS011;3647;48.792;9.802;2023-03-04T02:30:21;48.60;;;28.47;;
7211;SDS011;3647;48.792;9.802;2023-03-04T02:32:50;48.03;;;27.83;;
7211;SDS011;3647;48.792;9.802;2023-03-04T02:35:17;55.23;;;28.73;;
7211;SDS011;3647;48.792;9.802;2023-03-04T02:37:45;57.70;;;29.90;;
7211;SDS011;3647;48.792;9.802;2023-03-04T02:40:13;48.17;;;27.60;;
7211;SDS011;3647;48.792;9.802;2023-03-04T02:42:43;55.47;;;28.20;;
7211;SDS011;3647;48.792;9.802;2023-03-04T02:45:30;53.30;;;28.37;;
7211;SDS011;3647;48.792;9.802;2023-03-04T02:48:01;55.30;;;28.00;;
7211;SDS011;3647;48.792;9.802;2023-03-04T02:50:29;47.97;;;27.90;;
7211;SDS011;3647;48.792;9.802;2023-03-04T02:52:59;49.37;;;26.13;;
7211;SDS011;3647;48.792;9.802;2023-03-04T02:55:26;46.87;;;26.60;;
7211;SDS011;3647;48.792;9.802;2023-03-04T02:57:53;46.73;;;27.10;;
7211;SDS011;3647;48.792;9.802;2023-03-04T03:00:20;49.57;;;27.57;;
7211;SDS011;3647;48.792;9.802;2023-03-04T03:02:48;50.33;;;27.50;;
7211;SDS011;3647;48.792;9.802;2023-03-04T03:05:15;51.13;;;25.97;;
7211;SDS011;3647;48.792;9.802;2023-03-04T03:07:42;45.30;;;25.80;;
7211;SDS011;3647;48.792;9.802;2023-03-04T03:10:10;44.83;;;26.27;;
7211;SDS011;3647;48.792;9.802;2023-03-04T03:12:37;50.80;;;26.00;;
7211;SDS011;3647;48.792;9.802;2023-03-04T03:15:04;48.97;;;26.87;;
7211;SDS011;3647;48.792;9.802;2023-03-04T03:17:31;44.37;;;25.90;;
7211;SDS011;3647;48.792;9.802;2023-03-04T03:20:00;49.37;;;25.93;;
7211;SDS011;3647;48.792;9.802;2023-03-04T03:22:26;49.43;;;26.47;;
7211;SDS011;3647;48.792;9.802;2023-03-04T03:24:53;50.20;;;27.20;;
7211;SDS011;3647;48.792;9.802;2023-03-04T03:27:20;48.77;;;26.40;;
7211;SDS011;3647;48.792;9.802;2023-03-04T03:29:47;45.10;;;26.57;;
7211;SDS011;3647;48.792;9.802;2023-03-04T03:32:14;49.07;;;27.53;;
7211;SDS011;3647;48.792;9.802;2023-03-04T03:34:41;47.67;;;26.40;;
7211;SDS011;3647;48.792;9.802;2023-03-04T03:37:09;49.73;;;26.37;;
7211;SDS011;3647;48.792;9.802;2023-03-04T03:39:36;53.17;;;26.40;;
7211;SDS011;3647;48.792;9.802;2023-03-04T03:42:03;41.30;;;25.67;;
7211;SDS011;3647;48.792;9.802;2023-03-04T03:44:29;49.57;;;27.00;;
7211;SDS011;3647;48.792;9.802;2023-03-04T03:46:56;50.60;;;27.37;;
7211;SDS011;3647;48.792;9.802;2023-03-04T03:49:23;48.13;;;27.17;;
7211;SDS011;3647;48.792;9.802;2023-03-04T03:51:50;51.60;;;27.63;;
7211;SDS011;3647;48.792;9.802;2023-03-04T03:54:18;46.03;;;27.50;;
7211;SDS011;3647;48.792;9.802;2023-03-04T03:56:45;51.57;;;27.33;;
7211;SDS011;3647;48.792;9.802;2023-03-04T03:59:11;51.90;;;27.57;;
7211;SDS011;3647;48.792;9.802;2023-03-04T04:01:38;56.77;;;27.67;;
7211;SDS011;3647;48.792;9.802;2023-03-04T04:04:05;43.00;;;26.27;;
7211;SDS011;3647;48.792;9.802;2023-03-04T04:06:31;50.87;;;27.83;;
7211;SDS011;3647;48.792;9.802;2023-03-04T04:08:58;48.63;;;25.63;;
7211;SDS011;3647;48.792;9.802;2023-03-04T04:11:26;52.30;;;26.00;;
7211;SDS011;3647;48.792;9.802;2023-03-04T04:13:53;48.17;;;26.43;;
7211;SDS011;3647;48.792;9.802;2023-03-04T04:16:20;47.37;;;25.73;;
7211;SDS011;3647;48.792;9.802;2023-03-04T04:18:47;45.67;;;27.50;;
7211;SDS011;3647;48.792;9.802;2023-03-04T04:21:13;45.70;;;28.70;;
7211;SDS011;3647;48.792;9.802;2023-03-04T04:23:40;51.77;;;26.97;;
7211;SDS011;3647;48.792;9.802;2023-03-04T04:26:07;51.10;;;26.03;;
7211;SDS011;3647;48.792;9.802;2023-03-04T04:28:35;46.80;;;25.57;;
7211;SDS011;3647;48.792;9.802;2023-03-04T04:31:05;53.33;;;27.40;;
7211;SDS011;3647;48.792;9.802;2023-03-04T04:33:32;49.93;;;27.27;;
7211;SDS011;3647;48.792;9.802;2023-03-04T04:35:59;45.50;;;26.30;;
7211;SDS011;3647;48.792;9.802;2023-03-04T04:38:27;46.77;;;25.77;;
7211;SDS011;3647;48.792;9.802;2023-03-04T04:40:55;49.73;;;26.10;;
7211;SDS011;3647;48.792;9.802;2023-03-04T04:43:22;46.50;;;26.67;;
7211;SDS011;3647;48.792;9.802;2023-03-04T04:45:51;53.53;;;26.97;;
7211;SDS011;3647;48.792;9.802;2023-03-04T04:48:17;49.30;;;26.80;;
7211;SDS011;3647;48.792;9.802;2023-03-04T04:50:44;45.77;;;27.60;;
7211;SDS011;3647;48.792;9.802;2023-03-04T04:53:11;48.50;;;26.40;;
7211;SDS011;3647;48.792;9.802;2023-03-04T04:55:38;42.87;;;25.93;;
7211;SDS011;3647;48.792;9.802;2023-03-04T04:58:05;51.23;;;26.53;;
7211;SDS011;3647;48.792;9.802;2023-03-04T05:00:32;53.90;;;26.63;;
7211;SDS011;3647;48.792;9.802;2023-03-04T05:03:01;46.40;;;26.53;;
7211;SDS011;3647;48.792;9.802;2023-03-04T05:05:27;52.23;;;26.87;;
7211;SDS011;3647;48.792;9.802;2023-03-04T05:07:54;46.30;;;26.00;;
7211;SDS011;3647;48.792;9.802;2023-03-04T05:10:21;40.57;;;24.47;;
7211;SDS011;3647;48.792;9.802;2023-03-04T05:12:48;45.43;;;25.93;;
7211;SDS011;3647;48.792;9.802;2023-03-04T05:15:15;44.50;;;26.03;;
7211;SDS011;3647;48.792;9.802;2023-03-04T05:17:41;51.63;;;26.67;;
7211;SDS011;3647;48.792;9.802;2023-03-04T05:20:10;48.60;;;25.80;;
7211;SDS011;3647;48.792;9.802;2023-03-04T05:22:37;50.80;;;26.60;;
7211;SDS011;3647;48.792;9.802;2023-03-04T05:25:04;44.63;;;27.30;;
7211;SDS011;3647;48.792;9.802;2023-03-04T05:27:31;50.67;;;27.37;;
7211;SDS011;3647;48.792;9.802;2023-03-04T05:29:58;43.47;;;24.23;;
7211;SDS011;3647;48.792;9.802;2023-03-04T05:32:25;43.07;;;25.50;;
7211;SDS011;3647;48.792;9.802;2023-03-04T05:34:52;40.43;;;23.83;;
7211;SDS011;3647;48.792;9.802;2023-03-04T05:37:21;52.30;;;28.17;;
7211;SDS011;3647;48.792;9.802;2023-03-04T05:39:47;49.23;;;27.87;;
7211;SDS011;3647;48.792;9.802;2023-03-04T05:42:14;45.93;;;26.20;;
7211;SDS011;3647;48.792;9.802;2023-03-04T05:44:41;54.87;;;27.70;;
7211;SDS011;3647;48.792;9.802;2023-03-04T05:47:08;48.37;;;27.27;;
7211;SDS011;3647;48.792;9.802;2023-03-04T05:49:35;47.93;;;26.10;;
7211;SDS011;3647;48.792;9.802;2023-03-04T05:52:02;57.23;;;27.10;;
7211;SDS011;3647;48.792;9.802;2023-03-04T05:54:30;46.83;;;26.57;;
7211;SDS011;3647;48.792;9.802;2023-03-04T05:56:57;47.57;;;27.00;;
7211;SDS011;3647;48.792;9.802;2023-03-04T05:59:24;51.17;;;25.83;;
7211;SDS011;3647;48.792;9.802;2023-03-04T06:01:51;46.77;;;25.53;;
7211;SDS011;3647;48.792;9.802;2023-03-04T06:04:18;55.10;;;26.53;;
7211;SDS011;3647;48.792;9.802;2023-03-04T06:06:45;53.03;;;27.10;;
7211;SDS011;3647;48.792;9.802;2023-03-04T06:09:11;50.80;;;26.57;;
7211;SDS011;3647;48.792;9.802;2023-03-04T06:11:40;51.53;;;26.17;;
7211;SDS011;3647;48.792;9.802;2023-03-04T06:14:07;45.87;;;25.93;;
7211;SDS011;3647;48.792;9.802;2023-03-04T06:16:34;48.60;;;26.00;;
7211;SDS011;3647;48.792;9.802;2023-03-04T06:19:01;54.53;;;27.40;;
7211;SDS011;3647;48.792;9.802;2023-03-04T06:21:27;52.83;;;29.30;;
7211;SDS011;3647;48.792;9.802;2023-03-04T06:23:54;55.97;;;28.57;;
7211;SDS011;3647;48.792;9.802;2023-03-04T06:26:21;49.87;;;27.07;;
7211;SDS011;3647;48.792;9.802;2023-03-04T06:28:49;54.90;;;27.90;;
7211;SDS011;3647;48.792;9.802;2023-03-04T06:31:16;49.57;;;26.93;;
7211;SDS011;3647;48.792;9.802;2023-03-04T06:33:43;51.90;;;28.60;;
7211;SDS011;3647;48.792;9.802;2023-03-04T06:36:10;53.57;;;28.70;;
7211;SDS011;3647;48.792;9.802;2023-03-04T06:38:37;49.07;;;28.00;;
7211;SDS011;3647;48.792;9.802;2023-03-04T06:41:07;52.23;;;28.53;;
7211;SDS011;3647;48.792;9.802;2023-03-04T06:43:35;50.00;;;27.30;;
7211;SDS011;3647;48.792;9.802;2023-03-04T06:46:04;54.30;;;27.80;;
7211;SDS011;3647;48.792;9.802;2023-03-04T06:48:31;52.53;;;27.97;;
7211;SDS011;3647;48.792;9.802;2023-03-04T06:50:59;48.07;;;27.27;;
7211;SDS011;3647;48.792;9.802;2023-03-04T06:53:30;48.07;;;27.87;;
7211;SDS011;3647;48.792;9.802;2023-03-04T06:55:57;56.97;;;28.90;;
7211;SDS011;3647;48.792;9.802;2023-03-04T06:58:24;50.97;;;27.23;;
7211;SDS011;3647;48.792;9.802;2023-03-04T07:00:50;55.47;;;29.77;;
7211;SDS011;3647;48.792;9.802;2023-03-04T07:03:18;53.30;;;27.77;;
7211;SDS011;3647;48.792;9.802;2023-03-04T07:05:46;51.80;;;28.47;;
7211;SDS011;3647;48.792;9.802;2023-03-04T07:08:12;54.87;;;29.03;;
7211;SDS011;3647;48.792;9.802;2023-03-04T07:10:39;50.43;;;28.90;;
7211;SDS011;3647;48.792;9.802;2023-03-04T07:13:06;47.03;;;27.20;;
7211;SDS011;3647;48.792;9.802;2023-03-04T07:15:33;54.47;;;28.33;;
7211;SDS011;3647;48.792;9.802;2023-03-04T07:18:00;51.13;;;28.47;;
7211;SDS011;3647;48.792;9.802;2023-03-04T07:20:28;54.00;;;27.87;;
7211;SDS011;3647;48.792;9.802;2023-03-04T07:22:55;49.90;;;28.43;;
7211;SDS011;3647;48.792;9.802;2023-03-04T07:25:21;51.07;;;27.50;;
7211;SDS011;3647;48.792;9.802;2023-03-04T07:27:48;44.10;;;26.80;;
7211;SDS011;3647;48.792;9.802;2023-03-04T07:30:15;51.50;;;27.30;;
7211;SDS011;3647;48.792;9.802;2023-03-04T07:32:42;42.80;;;24.87;;
7211;SDS011;3647;48.792;9.802;2023-03-04T07:35:09;50.80;;;27.17;;
7211;SDS011;3647;48.792;9.802;2023-03-04T07:37:37;53.50;;;26.60;;
7211;SDS011;3647;48.792;9.802;2023-03-04T07:40:05;43.10;;;23.60;;
7211;SDS011;3647;48.792;9.802;2023-03-04T07:42:33;41.00;;;24.53;;
7211;SDS011;3647;48.792;9.802;2023-03-04T07:45:00;42.17;;;24.13;;
7211;SDS011;3647;48.792;9.802;2023-03-04T07:47:27;49.70;;;24.67;;
7211;SDS011;3647;48.792;9.802;2023-03-04T07:49:53;40.13;;;22.20;;
7211;SDS011;3647;48.792;9.802;2023-03-04T07:52:21;38.20;;;20.13;;
7211;SDS011;3647;48.792;9.802;2023-03-04T07:54:49;39.77;;;19.57;;
7211;SDS011;3647;48.792;9.802;2023-03-04T07:57:16;33.93;;;18.90;;
7211;SDS011;3647;48.792;9.802;2023-03-04T07:59:42;35.00;;;19.00;;
7211;SDS011;3647;48.792;9.802;2023-03-04T08:02:09;39.13;;;20.33;;
7211;SDS011;3647;48.792;9.802;2023-03-04T08:04:36;33.30;;;18.97;;
7211;SDS011;3647;48.792;9.802;2023-03-04T08:07:03;36.27;;;17.87;;
7211;SDS011;3647;48.792;9.802;2023-03-04T08:09:30;37.47;;;20.27;;
7211;SDS011;3647;48.792;9.802;2023-03-04T08:11:58;27.40;;;16.10;;
7211;SDS011;3647;48.792;9.802;2023-03-04T08:14:25;33.63;;;18.17;;
7211;SDS011;3647;48.792;9.802;2023-03-04T08:16:52;40.80;;;19.53;;
7211;SDS011;3647;48.792;9.802;2023-03-04T08:19:19;37.10;;;18.73;;
7211;SDS011;3647;48.792;9.802;2023-03-04T08:21:45;35.23;;;18.83;;
7211;SDS011;3647;48.792;9.802;2023-03-04T08:24:12;34.23;;;18.47;;
7211;SDS011;3647;48.792;9.802;2023-03-04T08:26:40;33.07;;;15.70;;
7211;SDS011;3647;48.792;9.802;2023-03-04T08:29:10;30.17;;;17.90;;
7211;SDS011;3647;48.792;9.802;2023-03-04T08:31:38;31.13;;;16.37;;
7211;SDS011;3647;48.792;9.802;2023-03-04T08:34:06;29.47;;;16.50;;
7211;SDS011;3647;48.792;9.802;2023-03-04T08:36:34;27.20;;;14.97;;
7211;SDS011;3647;48.792;9.802;2023-03-04T08:39:01;26.07;;;16.60;;
7211;SDS011;3647;48.792;9.802;2023-03-04T08:41:28;31.60;;;15.90;;
7211;SDS011;3647;48.792;9.802;2023-03-04T08:43:55;28.10;;;16.17;;
7211;SDS011;3647;48.792;9.802;2023-03-04T08:46:23;29.47;;;16.60;;
7211;SDS011;3647;48.792;9.802;2023-03-04T08:48:50;33.43;;;17.50;;
7211;SDS011;3647;48.792;9.802;2023-03-04T08:51:17;30.93;;;17.30;;
7211;SDS011;3647;48.792;9.802;2023-03-04T08:53:44;27.33;;;15.13;;
7211;SDS011;3647;48.792;9.802;2023-03-04T08:56:11;26.57;;;13.80;;
7211;SDS011;3647;48.792;9.802;2023-03-04T08:58:38;27.53;;;15.80;;
7211;SDS011;3647;48.792;9.802;2023-03-04T09:01:06;34.63;;;16.93;;
7211;SDS011;3647;48.792;9.802;2023-03-04T09:03:36;28.37;;;15.67;;
7211;SDS011;3647;48.792;9.802;2023-03-04T09:06:04;26.53;;;13.67;;
7211;SDS011;3647;48.792;9.802;2023-03-04T09:08:31;31.07;;;15.47;;
7211;SDS011;3647;48.792;9.802;2023-03-04T09:10:58;32.30;;;15.80;;
7211;SDS011;3647;48.792;9.802;2023-03-04T09:13:27;28.23;;;15.00;;
7211;SDS011;3647;48.792;9.802;2023-03-04T09:15:54;29.40;;;15.40;;
7211;SDS011;3647;48.792;9.802;2023-03-04T09:18:22;30.00;;;17.30;;
7211;SDS011;3647;48.792;9.802;2023-03-04T09:20:51;28.27;;;15.83;;
7211;SDS011;3647;48.792;9.802;2023-03-04T09:23:19;27.53;;;16.23;;
7211;SDS011;3647;48.792;9.802;2023-03-04T09:25:47;30.37;;;16.53;;
7211;SDS011;3647;48.792;9.802;2023-03-04T09:28:14;30.67;;;15.03;;
7211;SDS011;3647;48.792;9.802;2023-03-04T09:30:42;28.83;;;15.97;;
7211;SDS011;3647;48.792;9.802;2023-03-04T09:33:09;31.53;;;16.73;;
7211;SDS011;3647;48.792;9.802;2023-03-04T09:35:36;28.30;;;15.07;;
7211;SDS011;3647;48.792;9.802;2023-03-04T09:38:06;32.67;;;16.97;;
7211;SDS011;3647;48.792;9.802;2023-03-04T09:40:36;30.73;;;17.10;;
7211;SDS011;3647;48.792;9.802;2023-03-04T09:43:06;33.63;;;17.80;;
7211;SDS011;3647;48.792;9.802;2023-03-04T09:45:40;35.23;;;18.37;;
7211;SDS011;3647;48.792;9.802;2023-03-04T09:48:16;32.90;;;16.87;;
7211;SDS011;3647;48.792;9.802;2023-03-04T09:50:51;32.63;;;17.23;;
7211;SDS011;3647;48.792;9.802;2023-03-04T09:53:29;37.10;;;21.20;;
7211;SDS011;3647;48.792;9.802;2023-03-04T09:56:04;40.27;;;20.43;;
7211;SDS011;3647;48.792;9.802;2023-03-04T09:58:35;44.10;;;21.23;;
7211;SDS011;3647;48.792;9.802;2023-03-04T10:01:19;50.17;;;24.00;;
7211;SDS011;3647;48.792;9.802;2023-03-04T10:03:51;45.50;;;23.33;;
7211;SDS011;3647;48.792;9.802;2023-03-04T10:06:21;40.63;;;22.07;;
7211;SDS011;3647;48.792;9.802;2023-03-04T10:08:51;44.20;;;21.67;;
7211;SDS011;3647;48.792;9.802;2023-03-04T10:11:24;42.67;;;21.87;;
7211;SDS011;3647;48.792;9.802;2023-03-04T10:13:59;45.43;;;21.60;;
7211;SDS011;3647;48.792;9.802;2023-03-04T10:16:37;44.37;;;21.83;;
7211;SDS011;3647;48.792;9.802;2023-03-04T10:19:18;42.50;;;22.87;;
7211;SDS011;3647;48.792;9.802;2023-03-04T10:21:49;36.63;;;20.03;;
7211;SDS011;3647;48.792;9.802;2023-03-04T10:24:19;44.77;;;22.70;;
7211;SDS011;3647;48.792;9.802;2023-03-04T10:26:50;39.57;;;21.17;;
7211;SDS011;3647;48.792;9.802;2023-03-04T10:29:20;33.70;;;18.40;;
7211;SDS011;3647;48.792;9.802;2023-03-04T10:31:49;37.37;;;19.87;;
7211;SDS011;3647;48.792;9.802;2023-03-04T10:34:20;37.40;;;18.87;;
7211;SDS011;3647;48.792;9.802;2023-03-04T10:36:49;33.80;;;19.23;;
7211;SDS011;3647;48.792;9.802;2023-03-04T10:39:25;38.30;;;19.70;;
7211;SDS011;3647;48.792;9.802;2023-03-04T20:50:35;46.57;;;22.20;;
7211;SDS011;3647;48.792;9.802;2023-03-04T20:53:01;43.70;;;21.63;;
7211;SDS011;3647;48.792;9.802;2023-03-04T20:55:28;38.87;;;20.87;;
7211;SDS011;3647;48.792;9.802;2023-03-04T20:57:55;39.80;;;21.20;;
7211;SDS011;3647;48.792;9.802;2023-03-04T21:00:24;43.57;;;21.57;;
7211;SDS011;3647;48.792;9.802;2023-03-04T21:02:51;43.87;;;22.90;;
7211;SDS011;3647;48.792;9.802;2023-03-04T21:05:19;48.73;;;20.70;;
7211;SDS011;3647;48.792;9.802;2023-03-04T21:07:47;38.00;;;19.63;;
7211;SDS011;3647;48.792;9.802;2023-03-04T21:10:13;47.73;;;21.63;;
7211;SDS011;3647;48.792;9.802;2023-03-04T21:12:43;46.40;;;22.87;;
7211;SDS011;3647;48.792;9.802;2023-03-04T21:15:12;44.07;;;20.50;;
7211;SDS011;3647;48.792;9.802;2023-03-04T21:17:39;42.63;;;20.27;;
7211;SDS011;3647;48.792;9.802;2023-03-04T21:20:06;39.23;;;20.63;;
7211;SDS011;3647;48.792;9.802;2023-03-04T21:22:35;43.73;;;20.87;;
7211;SDS011;3647;48.792;9.802;2023-03-04T21:25:03;39.90;;;20.80;;
7211;SDS011;3647;48.792;9.802;2023-03-04T21:27:31;39.40;;;21.10;;
7211;SDS011;3647;48.792;9.802;2023-03-04T21:30:02;39.77;;;19.53;;
7211;SDS011;3647;48.792;9.802;2023-03-04T21:32:30;40.97;;;21.20;;
7211;SDS011;3647;48.792;9.802;2023-03-04T21:34:56;40.20;;;20.57;;
7211;SDS011;3647;48.792;9.802;2023-03-04T21:37:23;36.53;;;20.23;;
7211;SDS011;3647;48.792;9.802;2023-03-04T21:39:50;51.73;;;22.60;;
7211;SDS011;3647;48.792;9.802;2023-03-04T21:42:19;45.27;;;20.53;;
7211;SDS011;3647;48.792;9.802;2023-03-04T21:44:46;45.00;;;20.60;;
7211;SDS011;3647;48.792;9.802;2023-03-04T21:47:12;47.93;;;21.70;;
